Terminal Aerodrome Forecast
Issued by NWS

Home | Current Version | Previous Version | Text Only | Print | Product List | Glossary On
Versions: 1 2 3 4 5 6 7 8 9 10 11 12 13 14 15 16 17
000
FTUS42 TJSJ 011129
TAFIST
TAF
TIST 011129Z 0112/0212 08013KT P6SM VCSH SCT025 BKN035 BKN070
     FM011300 11017G24KT P6SM VCSH SCT025 BKN040 BKN070
     FM012230 09010KT P6SM FEW025 SCT050=

USA.gov is the U.S. government's official web portal to all federal, state and local government web resources and services.